CheckWX is a tool to help pilots better visualize weather data.  It is not intended as a substitute for an official pre-flight weather briefing.

11:01:38 UTC

KELN METAR
Bowers Field Airport
Ellensburg, Washington, USA
Current

9 mins ago

KELN 141053Z AUTO 00000KT 10SM CLR 02/M01 A3000 RMK AO2 SLP162 T00221006 $
Observed
Oct-14 @ 10:53 UTC
Visibility
10 SM
Flight Rules
VFR
Cloud Levels
  • Clear skies
Temperature
C / 36°F
Dewpoint
-1°C / 30°F
Humidity
81%
Altimeter
30" Hg
Pressure
1015.92 hPa
Previous

1 hour ago

KELN 140953Z AUTO 28005KT 10SM CLR 03/M01 A2999 RMK AO2 SLP159 T00331006 $
Observed
Oct-14 @ 09:53 UTC
Wind
  • 280° at 5 KTS
Visibility
10 SM
Flight Rules
VFR
Cloud Levels
  • Clear skies
Temperature
C / 37°F
Dewpoint
-1°C / 30°F
Humidity
75%
Altimeter
29.99" Hg
Pressure
1015.62 hPa
Previous

2 hours ago

KELN 140853Z AUTO 28005KT 10SM CLR 03/M01 A2998 RMK AO2 SLP156 T00331006 53006
Observed
Oct-14 @ 08:53 UTC
Wind
  • 280° at 5 KTS
Visibility
10 SM
Flight Rules
VFR
Cloud Levels
  • Clear skies
Temperature
C / 37°F
Dewpoint
-1°C / 30°F
Humidity
75%
Altimeter
29.98" Hg
Pressure
1015.22 hPa